LFMTLFMU

Guest
Details From LFMT - Montpellier/Mediterranee
To LFMU - Beziers Vias
Flight Number -
Tags decoded
Created
Modified
Stats Distance 37 nm / 69 km
Max Altitude 0 ft / 0 m
Waypoints 6
Social Downloads 6
Likes 0
Share VATSIM

Download

Looking for another format? Having issues loading an existing format? Contact us
Advertisement - Login to hide

Notes

Requested: LFMT MT130 MT132 MU404 MU408 LFMU

Route

LFMT MT130 MT132 MU404 MU408 LFMU

ID Type Via Altitude Latitude Longitude Leg Dist Tot Dist Heading (true) Name
O LFMT APT - 0 ft / 0 m 43.57626˚ 3.96326˚ - 0 nm - Montpellier/Mediterranee
MT130 FIX - 0 ft / 0 m 43.54906˚ 4.02933˚ 3 nm 3 nm 120° / 120° -
MT132 FIX - 0 ft / 0 m 43.50733˚ 3.87795˚ 7 nm 10 nm 249° / 249° -
MU404 FIX - 0 ft / 0 m 43.38886˚ 3.67153˚ 11 nm 21 nm 232° / 232° -
MU408 FIX - 0 ft / 0 m 43.31236˚ 3.54861˚ 7 nm 28 nm 229° / 229° -
O LFMU APT - 0 ft / 0 m 43.32342˚ 3.35357˚ 8 nm 37 nm 275° / 274° Beziers Vias

Altitude Profile

Advertisement - Login to hide

LFMT

Details ICAO LFMT (MPL)
Name Montpellier/Mediterranee
Region France
Timezone Europe/Paris (UTC+2.0)
Stats Elevation 16 ft / 5 m (AMSL)
Location 43.576262° 3.963261°
Runways 2
Magnetic Variation 1.298° E

METAR

LFMT 232100Z AUTO 33002KT CAVOK 18/13 Q1018 TEMPO BKN010

Decode

TAF

TAF LFMT 232000Z 2321/2421 21005KT 9999 SCT050 TEMPO 2321/2410 BKN010 BECMG 2322/2324 VRB03KT TEMPO 2400/2408 2000 BR OVC004 BECMG 2410/2412 18010KT CAVOK BECMG 2418/2421 VRB03KT

Decode

Departure Runways

ID Width Length Bearing (true) Bearing (mag) Surface Threshold Offset Overrun Length
13L 164 ft / 50 m 8,525 ft / 2,598 m 124.78° 123.48° Asphalt 0 ft / 0 m 0 ft / 0 m
13R 98 ft / 30 m 3,611 ft / 1,101 m 124.80° 123.50° Asphalt 328 ft / 100 m 0 ft / 0 m
31L 98 ft / 30 m 3,611 ft / 1,101 m 304.81° 303.51° Asphalt 0 ft / 0 m 0 ft / 0 m
31R 164 ft / 50 m 8,525 ft / 2,598 m 304.80° 303.50° Asphalt 0 ft / 0 m 0 ft / 0 m

LFMU

Details ICAO LFMU (BZR)
Name Beziers Vias
Region France
Timezone Europe/Paris (UTC+2.0)
Stats Elevation 54 ft / 16 m (AMSL)
Location 43.323422° 3.353573°
Runways 1
Magnetic Variation 1.151° E

METAR

LFMU 232100Z AUTO 04003KT CAVOK 17/14 Q1018

Decode

TAF

TAF AMD TAF AMD LFMU 232030Z 2320/2415 CNL

Decode

Destination Runways

ID Width Length Bearing (true) Bearing (mag) Surface Threshold Offset Overrun Length
10 115 ft / 35 m 5,955 ft / 1,815 m 94.20° 93.05° Asphalt 459 ft / 140 m 0 ft / 0 m
28 115 ft / 35 m 5,955 ft / 1,815 m 274.22° 273.07° Asphalt 0 ft / 0 m 0 ft / 0 m

Approach Navaids

Runway Type Ident Frequency Range Bearing (true) Bearing (mag) Slope Elevation
10 Localiser ZR 109.35 MHz 18 nm / 33 km 94.52° 93.37° - 50 ft / 15 m (AMSL)
10 Glidescope ZR 109.35 MHz 10 nm / 19 km 94.21° 93.06° 3.00° 92 ft / 28 m (AMSL)
10 DME ZR 109.35 MHz 18 nm / 33 km - - - 92 ft / 28 m (AMSL)

Popular Alternatives